sensor_id;sensor_type;location;lat;lon;timestamp;P1;durP1;ratioP1;P2;durP2;ratioP2
54247;SDS011;40161;39.768;2.722;2022-09-12T00:01:15;3.47;;;1.40;;
54247;SDS011;40161;39.768;2.722;2022-09-12T00:03:46;2.17;;;1.23;;
54247;SDS011;40161;39.768;2.722;2022-09-12T00:06:14;4.75;;;1.40;;
54247;SDS011;40161;39.768;2.722;2022-09-12T00:08:42;2.22;;;1.23;;
54247;SDS011;40161;39.768;2.722;2022-09-12T00:11:08;2.75;;;1.20;;
54247;SDS011;40161;39.768;2.722;2022-09-12T00:13:36;3.83;;;1.30;;
54247;SDS011;40161;39.768;2.722;2022-09-12T00:16:03;3.30;;;1.35;;
54247;SDS011;40161;39.768;2.722;2022-09-12T00:18:29;4.28;;;1.20;;
54247;SDS011;40161;39.768;2.722;2022-09-12T00:20:56;4.05;;;1.50;;
54247;SDS011;40161;39.768;2.722;2022-09-12T00:23:21;2.22;;;1.10;;
54247;SDS011;40161;39.768;2.722;2022-09-12T00:25:47;2.53;;;1.08;;
54247;SDS011;40161;39.768;2.722;2022-09-12T00:28:14;2.10;;;1.10;;
54247;SDS011;40161;39.768;2.722;2022-09-12T00:30:41;2.97;;;1.20;;
54247;SDS011;40161;39.768;2.722;2022-09-12T00:33:08;3.08;;;1.10;;
54247;SDS011;40161;39.768;2.722;2022-09-12T00:35:45;6.22;;;1.35;;
54247;SDS011;40161;39.768;2.722;2022-09-12T00:38:13;2.47;;;1.40;;
54247;SDS011;40161;39.768;2.722;2022-09-12T00:47:29;2.85;;;1.10;;
54247;SDS011;40161;39.768;2.722;2022-09-12T00:50:04;4.10;;;1.20;;
54247;SDS011;40161;39.768;2.722;2022-09-12T00:52:47;3.47;;;1.10;;
54247;SDS011;40161;39.768;2.722;2022-09-12T00:55:40;2.28;;;1.05;;
54247;SDS011;40161;39.768;2.722;2022-09-12T00:58:12;2.15;;;0.82;;
54247;SDS011;40161;39.768;2.722;2022-09-12T01:00:40;2.53;;;1.08;;
54247;SDS011;40161;39.768;2.722;2022-09-12T01:03:08;2.38;;;0.93;;
54247;SDS011;40161;39.768;2.722;2022-09-12T01:05:40;3.88;;;1.00;;
54247;SDS011;40161;39.768;2.722;2022-09-12T01:08:09;2.22;;;0.80;;
54247;SDS011;40161;39.768;2.722;2022-09-12T01:10:36;2.15;;;0.98;;
54247;SDS011;40161;39.768;2.722;2022-09-12T01:13:04;2.92;;;0.93;;
54247;SDS011;40161;39.768;2.722;2022-09-12T01:15:31;2.92;;;1.17;;
54247;SDS011;40161;39.768;2.722;2022-09-12T01:18:02;3.03;;;1.10;;
54247;SDS011;40161;39.768;2.722;2022-09-12T01:31:33;3.10;;;0.82;;
54247;SDS011;40161;39.768;2.722;2022-09-12T01:34:30;3.83;;;0.70;;
54247;SDS011;40161;39.768;2.722;2022-09-12T01:37:37;3.17;;;0.90;;
54247;SDS011;40161;39.768;2.722;2022-09-12T01:48:15;1.60;;;0.80;;
54247;SDS011;40161;39.768;2.722;2022-09-12T01:51:12;4.32;;;1.20;;
54247;SDS011;40161;39.768;2.722;2022-09-12T01:53:48;1.90;;;0.80;;
54247;SDS011;40161;39.768;2.722;2022-09-12T01:56:26;3.25;;;0.85;;
54247;SDS011;40161;39.768;2.722;2022-09-12T02:04:41;3.10;;;0.77;;
54247;SDS011;40161;39.768;2.722;2022-09-12T02:07:14;2.85;;;0.90;;
54247;SDS011;40161;39.768;2.722;2022-09-12T02:12:14;3.65;;;1.00;;
54247;SDS011;40161;39.768;2.722;2022-09-12T02:14:46;2.72;;;1.00;;
54247;SDS011;40161;39.768;2.722;2022-09-12T02:17:21;2.40;;;0.98;;
54247;SDS011;40161;39.768;2.722;2022-09-12T02:19:51;1.33;;;0.70;;
54247;SDS011;40161;39.768;2.722;2022-09-12T02:22:21;2.83;;;0.80;;
54247;SDS011;40161;39.768;2.722;2022-09-12T02:24:49;1.75;;;0.60;;
54247;SDS011;40161;39.768;2.722;2022-09-12T02:27:23;1.95;;;0.63;;
54247;SDS011;40161;39.768;2.722;2022-09-12T02:29:55;1.10;;;0.50;;
54247;SDS011;40161;39.768;2.722;2022-09-12T02:35:57;1.15;;;0.60;;
54247;SDS011;40161;39.768;2.722;2022-09-12T02:38:53;2.60;;;0.60;;
54247;SDS011;40161;39.768;2.722;2022-09-12T02:41:01;2.83;;;0.63;;
54247;SDS011;40161;39.768;2.722;2022-09-12T02:43:27;1.88;;;0.40;;
54247;SDS011;40161;39.768;2.722;2022-09-12T02:45:52;1.98;;;0.40;;
54247;SDS011;40161;39.768;2.722;2022-09-12T02:48:36;1.13;;;0.57;;
54247;SDS011;40161;39.768;2.722;2022-09-12T02:51:06;0.93;;;0.50;;
54247;SDS011;40161;39.768;2.722;2022-09-12T02:53:32;0.70;;;0.47;;
54247;SDS011;40161;39.768;2.722;2022-09-12T02:55:58;1.98;;;0.50;;
54247;SDS011;40161;39.768;2.722;2022-09-12T02:58:25;2.15;;;0.50;;
54247;SDS011;40161;39.768;2.722;2022-09-12T03:03:37;0.65;;;0.30;;
54247;SDS011;40161;39.768;2.722;2022-09-12T03:14:43;3.25;;;1.15;;
54247;SDS011;40161;39.768;2.722;2022-09-12T03:20:42;4.35;;;1.30;;
54247;SDS011;40161;39.768;2.722;2022-09-12T03:25:52;3.05;;;1.15;;
54247;SDS011;40161;39.768;2.722;2022-09-12T03:28:23;1.92;;;1.30;;
54247;SDS011;40161;39.768;2.722;2022-09-12T03:30:49;2.78;;;1.08;;
54247;SDS011;40161;39.768;2.722;2022-09-12T03:33:18;3.90;;;1.30;;
54247;SDS011;40161;39.768;2.722;2022-09-12T03:35:48;2.63;;;1.15;;
54247;SDS011;40161;39.768;2.722;2022-09-12T03:38:15;3.42;;;1.10;;
54247;SDS011;40161;39.768;2.722;2022-09-12T03:40:42;2.78;;;1.15;;
54247;SDS011;40161;39.768;2.722;2022-09-12T03:43:08;2.05;;;0.90;;
54247;SDS011;40161;39.768;2.722;2022-09-12T03:45:34;2.38;;;1.00;;
54247;SDS011;40161;39.768;2.722;2022-09-12T03:48:01;3.22;;;0.90;;
54247;SDS011;40161;39.768;2.722;2022-09-12T03:50:27;4.45;;;0.90;;
54247;SDS011;40161;39.768;2.722;2022-09-12T03:52:53;1.60;;;0.90;;
54247;SDS011;40161;39.768;2.722;2022-09-12T03:55:19;1.90;;;0.98;;
54247;SDS011;40161;39.768;2.722;2022-09-12T03:57:44;3.47;;;0.90;;
54247;SDS011;40161;39.768;2.722;2022-09-12T04:00:10;4.28;;;1.10;;
54247;SDS011;40161;39.768;2.722;2022-09-12T04:02:36;1.92;;;1.02;;
54247;SDS011;40161;39.768;2.722;2022-09-12T04:05:02;2.05;;;0.90;;
54247;SDS011;40161;39.768;2.722;2022-09-12T04:07:28;1.83;;;0.80;;
54247;SDS011;40161;39.768;2.722;2022-09-12T04:09:54;3.88;;;0.90;;
54247;SDS011;40161;39.768;2.722;2022-09-12T04:12:20;2.90;;;0.80;;
54247;SDS011;40161;39.768;2.722;2022-09-12T04:14:46;1.08;;;0.75;;
54247;SDS011;40161;39.768;2.722;2022-09-12T04:17:12;1.98;;;0.80;;
54247;SDS011;40161;39.768;2.722;2022-09-12T04:19:38;1.75;;;0.70;;
54247;SDS011;40161;39.768;2.722;2022-09-12T04:22:03;5.72;;;0.90;;
54247;SDS011;40161;39.768;2.722;2022-09-12T04:24:29;2.83;;;1.00;;
54247;SDS011;40161;39.768;2.722;2022-09-12T04:26:54;1.70;;;0.90;;
54247;SDS011;40161;39.768;2.722;2022-09-12T04:29:20;1.75;;;0.70;;
54247;SDS011;40161;39.768;2.722;2022-09-12T04:31:46;1.60;;;0.70;;
54247;SDS011;40161;39.768;2.722;2022-09-12T04:34:11;1.38;;;0.82;;
54247;SDS011;40161;39.768;2.722;2022-09-12T04:36:37;2.03;;;0.70;;
54247;SDS011;40161;39.768;2.722;2022-09-12T04:39:03;3.08;;;0.63;;
54247;SDS011;40161;39.768;2.722;2022-09-12T04:41:30;3.03;;;0.77;;
54247;SDS011;40161;39.768;2.722;2022-09-12T04:43:59;1.42;;;0.73;;
54247;SDS011;40161;39.768;2.722;2022-09-12T04:46:27;3.17;;;0.70;;
54247;SDS011;40161;39.768;2.722;2022-09-12T04:48:54;3.25;;;0.80;;
54247;SDS011;40161;39.768;2.722;2022-09-12T04:51:21;2.45;;;0.80;;
54247;SDS011;40161;39.768;2.722;2022-09-12T04:53:52;3.47;;;1.10;;
54247;SDS011;40161;39.768;2.722;2022-09-12T04:56:20;2.25;;;1.00;;
54247;SDS011;40161;39.768;2.722;2022-09-12T04:58:47;3.08;;;1.23;;
54247;SDS011;40161;39.768;2.722;2022-09-12T05:01:14;4.38;;;1.33;;
54247;SDS011;40161;39.768;2.722;2022-09-12T05:03:42;3.10;;;1.00;;
54247;SDS011;40161;39.768;2.722;2022-09-12T05:06:14;3.13;;;1.08;;
54247;SDS011;40161;39.768;2.722;2022-09-12T05:08:44;6.10;;;2.03;;
54247;SDS011;40161;39.768;2.722;2022-09-12T05:11:13;4.30;;;0.90;;
54247;SDS011;40161;39.768;2.722;2022-09-12T05:13:40;3.03;;;1.10;;
54247;SDS011;40161;39.768;2.722;2022-09-12T05:16:06;4.03;;;0.90;;
54247;SDS011;40161;39.768;2.722;2022-09-12T05:18:34;4.65;;;1.10;;
54247;SDS011;40161;39.768;2.722;2022-09-12T05:21:02;2.90;;;1.00;;
54247;SDS011;40161;39.768;2.722;2022-09-12T05:23:30;3.38;;;0.90;;
54247;SDS011;40161;39.768;2.722;2022-09-12T05:25:56;8.07;;;1.65;;
54247;SDS011;40161;39.768;2.722;2022-09-12T05:28:23;2.85;;;1.08;;
54247;SDS011;40161;39.768;2.722;2022-09-12T05:31:06;3.67;;;0.90;;
54247;SDS011;40161;39.768;2.722;2022-09-12T05:33:35;3.25;;;1.10;;
54247;SDS011;40161;39.768;2.722;2022-09-12T05:36:03;2.88;;;1.10;;
54247;SDS011;40161;39.768;2.722;2022-09-12T05:38:30;4.25;;;0.95;;
54247;SDS011;40161;39.768;2.722;2022-09-12T05:41:02;7.30;;;1.02;;
54247;SDS011;40161;39.768;2.722;2022-09-12T05:43:41;3.90;;;0.90;;
54247;SDS011;40161;39.768;2.722;2022-09-12T05:46:10;6.47;;;1.00;;
54247;SDS011;40161;39.768;2.722;2022-09-12T05:48:37;8.55;;;2.53;;
54247;SDS011;40161;39.768;2.722;2022-09-12T05:51:06;3.45;;;1.02;;
54247;SDS011;40161;39.768;2.722;2022-09-12T05:53:33;7.75;;;1.42;;
54247;SDS011;40161;39.768;2.722;2022-09-12T05:58:28;5.18;;;1.35;;
54247;SDS011;40161;39.768;2.722;2022-09-12T06:00:53;3.58;;;1.45;;
54247;SDS011;40161;39.768;2.722;2022-09-12T06:03:20;3.40;;;1.02;;
54247;SDS011;40161;39.768;2.722;2022-09-12T06:05:46;3.90;;;0.90;;
54247;SDS011;40161;39.768;2.722;2022-09-12T06:08:11;3.50;;;1.10;;
54247;SDS011;40161;39.768;2.722;2022-09-12T06:10:37;2.00;;;0.88;;
54247;SDS011;40161;39.768;2.722;2022-09-12T06:13:03;3.63;;;0.90;;
54247;SDS011;40161;39.768;2.722;2022-09-12T06:15:28;6.00;;;1.20;;
54247;SDS011;40161;39.768;2.722;2022-09-12T06:17:53;5.20;;;1.00;;
54247;SDS011;40161;39.768;2.722;2022-09-12T06:20:21;2.30;;;0.80;;
54247;SDS011;40161;39.768;2.722;2022-09-12T06:22:46;3.60;;;0.88;;
54247;SDS011;40161;39.768;2.722;2022-09-12T06:25:12;3.72;;;0.98;;
54247;SDS011;40161;39.768;2.722;2022-09-12T06:27:38;5.45;;;1.00;;
54247;SDS011;40161;39.768;2.722;2022-09-12T06:30:04;4.35;;;1.10;;
54247;SDS011;40161;39.768;2.722;2022-09-12T06:32:31;9.30;;;2.03;;
54247;SDS011;40161;39.768;2.722;2022-09-12T06:34:56;6.60;;;2.70;;
54247;SDS011;40161;39.768;2.722;2022-09-12T06:37:22;17.80;;;7.30;;
54247;SDS011;40161;39.768;2.722;2022-09-12T06:39:47;18.85;;;5.85;;
54247;SDS011;40161;39.768;2.722;2022-09-12T06:42:13;30.45;;;16.60;;
54247;SDS011;40161;39.768;2.722;2022-09-12T06:44:39;68.47;;;13.20;;
54247;SDS011;40161;39.768;2.722;2022-09-12T06:47:05;26.85;;;12.82;;
54247;SDS011;40161;39.768;2.722;2022-09-12T06:49:31;22.67;;;10.88;;
54247;SDS011;40161;39.768;2.722;2022-09-12T06:51:58;21.77;;;8.15;;
54247;SDS011;40161;39.768;2.722;2022-09-12T06:54:23;14.13;;;5.63;;
54247;SDS011;40161;39.768;2.722;2022-09-12T06:56:50;70.85;;;13.73;;
54247;SDS011;40161;39.768;2.722;2022-09-12T06:59:16;26.00;;;4.32;;
54247;SDS011;40161;39.768;2.722;2022-09-12T07:01:41;44.95;;;7.93;;
54247;SDS011;40161;39.768;2.722;2022-09-12T07:04:07;13.75;;;3.10;;
54247;SDS011;40161;39.768;2.722;2022-09-12T07:06:37;7.28;;;2.08;;
54247;SDS011;40161;39.768;2.722;2022-09-12T07:09:05;5.22;;;1.95;;
54247;SDS011;40161;39.768;2.722;2022-09-12T07:11:33;5.80;;;2.10;;
54247;SDS011;40161;39.768;2.722;2022-09-12T07:14:00;4.28;;;1.45;;
54247;SDS011;40161;39.768;2.722;2022-09-12T07:16:27;5.32;;;1.70;;
54247;SDS011;40161;39.768;2.722;2022-09-12T07:18:54;4.05;;;1.02;;
54247;SDS011;40161;39.768;2.722;2022-09-12T07:21:24;7.10;;;2.67;;
54247;SDS011;40161;39.768;2.722;2022-09-12T07:23:51;8.65;;;2.20;;
54247;SDS011;40161;39.768;2.722;2022-09-12T07:26:19;10.27;;;3.65;;
54247;SDS011;40161;39.768;2.722;2022-09-12T07:28:45;9.27;;;4.60;;
54247;SDS011;40161;39.768;2.722;2022-09-12T07:31:17;12.63;;;4.43;;
54247;SDS011;40161;39.768;2.722;2022-09-12T07:33:44;14.23;;;5.57;;
54247;SDS011;40161;39.768;2.722;2022-09-12T07:36:10;16.02;;;5.00;;
54247;SDS011;40161;39.768;2.722;2022-09-12T07:38:37;15.88;;;5.40;;
54247;SDS011;40161;39.768;2.722;2022-09-12T07:41:13;13.23;;;6.85;;
54247;SDS011;40161;39.768;2.722;2022-09-12T07:43:47;15.13;;;5.53;;
54247;SDS011;40161;39.768;2.722;2022-09-12T07:46:16;15.90;;;6.00;;
54247;SDS011;40161;39.768;2.722;2022-09-12T07:48:41;14.80;;;5.95;;
54247;SDS011;40161;39.768;2.722;2022-09-12T07:51:09;12.00;;;5.43;;
54247;SDS011;40161;39.768;2.722;2022-09-12T07:53:36;13.68;;;4.65;;
54247;SDS011;40161;39.768;2.722;2022-09-12T07:56:04;7.30;;;4.25;;
54247;SDS011;40161;39.768;2.722;2022-09-12T07:58:32;10.38;;;6.45;;
54247;SDS011;40161;39.768;2.722;2022-09-12T08:03:32;9.52;;;3.97;;
54247;SDS011;40161;39.768;2.722;2022-09-12T08:08:30;6.90;;;2.63;;
54247;SDS011;40161;39.768;2.722;2022-09-12T08:10:57;2.83;;;1.15;;
54247;SDS011;40161;39.768;2.722;2022-09-12T08:13:24;7.60;;;1.70;;
54247;SDS011;40161;39.768;2.722;2022-09-12T08:15:50;6.25;;;2.80;;
54247;SDS011;40161;39.768;2.722;2022-09-12T08:18:16;8.35;;;3.45;;
54247;SDS011;40161;39.768;2.722;2022-09-12T08:20:41;7.55;;;3.67;;
54247;SDS011;40161;39.768;2.722;2022-09-12T08:23:07;8.85;;;3.67;;
54247;SDS011;40161;39.768;2.722;2022-09-12T08:25:32;6.80;;;3.40;;
54247;SDS011;40161;39.768;2.722;2022-09-12T08:27:58;6.90;;;2.70;;
54247;SDS011;40161;39.768;2.722;2022-09-12T08:30:26;6.75;;;2.70;;
54247;SDS011;40161;39.768;2.722;2022-09-12T08:32:51;9.95;;;3.10;;
54247;SDS011;40161;39.768;2.722;2022-09-12T08:35:17;5.65;;;2.60;;
54247;SDS011;40161;39.768;2.722;2022-09-12T08:37:43;5.25;;;1.95;;
54247;SDS011;40161;39.768;2.722;2022-09-12T08:40:13;6.47;;;1.80;;
54247;SDS011;40161;39.768;2.722;2022-09-12T08:42:56;4.63;;;1.60;;
54247;SDS011;40161;39.768;2.722;2022-09-12T08:45:42;4.82;;;1.20;;
54247;SDS011;40161;39.768;2.722;2022-09-12T08:48:16;4.13;;;1.13;;
54247;SDS011;40161;39.768;2.722;2022-09-12T08:50:42;2.78;;;1.20;;
54247;SDS011;40161;39.768;2.722;2022-09-12T08:53:11;4.10;;;1.20;;
54247;SDS011;40161;39.768;2.722;2022-09-12T08:55:42;8.35;;;1.15;;
54247;SDS011;40161;39.768;2.722;2022-09-12T08:58:12;3.38;;;1.20;;
54247;SDS011;40161;39.768;2.722;2022-09-12T09:15:10;6.03;;;1.60;;
54247;SDS011;40161;39.768;2.722;2022-09-12T09:17:52;2.20;;;0.98;;
54247;SDS011;40161;39.768;2.722;2022-09-12T09:20:38;1.25;;;0.77;;
54247;SDS011;40161;39.768;2.722;2022-09-12T09:23:26;2.38;;;0.90;;
54247;SDS011;40161;39.768;2.722;2022-09-12T09:28:46;2.67;;;0.90;;
54247;SDS011;40161;39.768;2.722;2022-09-12T09:31:21;3.38;;;1.85;;
54247;SDS011;40161;39.768;2.722;2022-09-12T09:33:49;2.92;;;1.10;;
54247;SDS011;40161;39.768;2.722;2022-09-12T09:39:04;4.57;;;1.05;;
54247;SDS011;40161;39.768;2.722;2022-09-12T09:44:26;6.25;;;1.17;;
54247;SDS011;40161;39.768;2.722;2022-09-12T09:46:53;3.33;;;0.93;;
54247;SDS011;40161;39.768;2.722;2022-09-12T09:49:22;3.63;;;0.98;;
54247;SDS011;40161;39.768;2.722;2022-09-12T09:51:49;4.63;;;1.10;;
54247;SDS011;40161;39.768;2.722;2022-09-12T09:56:53;4.45;;;1.02;;
54247;SDS011;40161;39.768;2.722;2022-09-12T09:59:32;4.72;;;1.40;;
54247;SDS011;40161;39.768;2.722;2022-09-12T10:02:14;3.65;;;1.17;;
54247;SDS011;40161;39.768;2.722;2022-09-12T10:04:53;4.45;;;0.93;;
54247;SDS011;40161;39.768;2.722;2022-09-12T10:07:21;4.38;;;0.98;;
54247;SDS011;40161;39.768;2.722;2022-09-12T10:12:40;3.97;;;1.13;;
54247;SDS011;40161;39.768;2.722;2022-09-12T10:15:22;3.05;;;1.00;;
54247;SDS011;40161;39.768;2.722;2022-09-12T10:17:53;4.38;;;1.00;;
54247;SDS011;40161;39.768;2.722;2022-09-12T10:23:01;6.35;;;1.30;;
54247;SDS011;40161;39.768;2.722;2022-09-12T10:25:47;3.20;;;1.00;;
54247;SDS011;40161;39.768;2.722;2022-09-12T10:28:20;6.15;;;1.10;;
54247;SDS011;40161;39.768;2.722;2022-09-12T10:30:54;2.90;;;0.95;;
54247;SDS011;40161;39.768;2.722;2022-09-12T10:33:20;3.67;;;1.00;;
54247;SDS011;40161;39.768;2.722;2022-09-12T10:35:49;2.85;;;1.00;;
54247;SDS011;40161;39.768;2.722;2022-09-12T10:38:24;3.60;;;0.95;;
54247;SDS011;40161;39.768;2.722;2022-09-12T10:40:56;2.70;;;0.95;;
54247;SDS011;40161;39.768;2.722;2022-09-12T10:43:40;3.67;;;1.10;;
54247;SDS011;40161;39.768;2.722;2022-09-12T10:48:44;4.40;;;1.13;;
54247;SDS011;40161;39.768;2.722;2022-09-12T10:53:49;5.05;;;1.00;;
54247;SDS011;40161;39.768;2.722;2022-09-12T10:56:21;4.10;;;1.42;;
54247;SDS011;40161;39.768;2.722;2022-09-12T11:01:40;4.63;;;1.25;;
54247;SDS011;40161;39.768;2.722;2022-09-12T11:09:12;5.25;;;1.10;;
54247;SDS011;40161;39.768;2.722;2022-09-12T11:11:55;3.35;;;0.90;;
54247;SDS011;40161;39.768;2.722;2022-09-12T11:17:24;4.38;;;1.15;;
54247;SDS011;40161;39.768;2.722;2022-09-12T11:22:48;5.22;;;1.20;;
54247;SDS011;40161;39.768;2.722;2022-09-12T11:30:26;4.63;;;1.00;;
54247;SDS011;40161;39.768;2.722;2022-09-12T11:33:17;3.55;;;0.98;;
54247;SDS011;40161;39.768;2.722;2022-09-12T11:35:54;2.65;;;1.02;;
54247;SDS011;40161;39.768;2.722;2022-09-12T11:41:14;2.70;;;0.90;;
54247;SDS011;40161;39.768;2.722;2022-09-12T11:46:43;3.15;;;0.80;;
54247;SDS011;40161;39.768;2.722;2022-09-12T11:54:31;3.27;;;0.97;;
54247;SDS011;40161;39.768;2.722;2022-09-12T11:57:13;2.78;;;0.90;;
54247;SDS011;40161;39.768;2.722;2022-09-12T12:00:05;7.43;;;1.20;;
54247;SDS011;40161;39.768;2.722;2022-09-12T12:03:03;4.00;;;0.80;;
54247;SDS011;40161;39.768;2.722;2022-09-12T12:05:39;2.17;;;1.00;;
54247;SDS011;40161;39.768;2.722;2022-09-12T12:08:06;2.80;;;0.88;;
54247;SDS011;40161;39.768;2.722;2022-09-12T12:10:43;3.25;;;0.90;;
54247;SDS011;40161;39.768;2.722;2022-09-12T12:13:25;5.35;;;1.20;;
54247;SDS011;40161;39.768;2.722;2022-09-12T12:15:53;4.53;;;1.20;;
54247;SDS011;40161;39.768;2.722;2022-09-12T12:18:25;3.53;;;0.93;;
54247;SDS011;40161;39.768;2.722;2022-09-12T12:25:57;1.85;;;1.05;;
54247;SDS011;40161;39.768;2.722;2022-09-12T12:31:15;4.60;;;1.10;;
54247;SDS011;40161;39.768;2.722;2022-09-12T12:36:32;2.95;;;0.90;;
54247;SDS011;40161;39.768;2.722;2022-09-12T12:42:04;3.37;;;0.83;;
54247;SDS011;40161;39.768;2.722;2022-09-12T12:50:02;5.18;;;1.10;;
54247;SDS011;40161;39.768;2.722;2022-09-12T12:52:31;4.25;;;1.38;;
54247;SDS011;40161;39.768;2.722;2022-09-12T12:55:13;3.05;;;1.00;;
54247;SDS011;40161;39.768;2.722;2022-09-12T12:57:56;4.15;;;1.00;;
54247;SDS011;40161;39.768;2.722;2022-09-12T13:02:51;2.28;;;0.85;;
54247;SDS011;40161;39.768;2.722;2022-09-12T13:05:46;1.85;;;0.80;;
54247;SDS011;40161;39.768;2.722;2022-09-12T13:16:08;2.95;;;1.00;;
54247;SDS011;40161;39.768;2.722;2022-09-12T13:18:40;2.97;;;1.10;;
54247;SDS011;40161;39.768;2.722;2022-09-12T13:21:16;2.92;;;0.90;;
54247;SDS011;40161;39.768;2.722;2022-09-12T13:23:43;2.75;;;1.00;;
54247;SDS011;40161;39.768;2.722;2022-09-12T13:26:27;3.42;;;1.08;;
54247;SDS011;40161;39.768;2.722;2022-09-12T13:29:11;3.53;;;1.02;;
54247;SDS011;40161;39.768;2.722;2022-09-12T13:31:41;3.67;;;1.00;;
54247;SDS011;40161;39.768;2.722;2022-09-12T13:34:08;3.80;;;0.90;;
54247;SDS011;40161;39.768;2.722;2022-09-12T13:36:49;2.38;;;1.00;;
54247;SDS011;40161;39.768;2.722;2022-09-12T13:39:25;2.92;;;0.93;;
54247;SDS011;40161;39.768;2.722;2022-09-12T13:42:01;1.40;;;0.73;;
54247;SDS011;40161;39.768;2.722;2022-09-12T13:44:31;5.25;;;0.95;;
54247;SDS011;40161;39.768;2.722;2022-09-12T13:47:07;2.80;;;0.82;;
54247;SDS011;40161;39.768;2.722;2022-09-12T13:49:40;3.25;;;0.80;;
54247;SDS011;40161;39.768;2.722;2022-09-12T13:52:07;3.70;;;0.90;;
54247;SDS011;40161;39.768;2.722;2022-09-12T13:54:41;2.95;;;0.80;;
54247;SDS011;40161;39.768;2.722;2022-09-12T14:00:03;3.40;;;0.90;;
54247;SDS011;40161;39.768;2.722;2022-09-12T14:02:33;3.50;;;1.08;;
54247;SDS011;40161;39.768;2.722;2022-09-12T14:05:00;1.08;;;0.57;;
54247;SDS011;40161;39.768;2.722;2022-09-12T14:07:47;2.20;;;0.93;;
54247;SDS011;40161;39.768;2.722;2022-09-12T14:10:35;2.80;;;1.00;;
54247;SDS011;40161;39.768;2.722;2022-09-12T14:13:08;2.88;;;0.88;;
54247;SDS011;40161;39.768;2.722;2022-09-12T14:15:43;3.13;;;1.00;;
54247;SDS011;40161;39.768;2.722;2022-09-12T14:18:20;3.13;;;0.70;;
54247;SDS011;40161;39.768;2.722;2022-09-12T14:20:48;1.92;;;0.90;;
54247;SDS011;40161;39.768;2.722;2022-09-12T14:23:22;1.40;;;0.70;;
54247;SDS011;40161;39.768;2.722;2022-09-12T14:25:56;2.97;;;0.80;;
54247;SDS011;40161;39.768;2.722;2022-09-12T14:28:27;1.85;;;0.80;;
54247;SDS011;40161;39.768;2.722;2022-09-12T14:31:03;2.17;;;0.80;;
54247;SDS011;40161;39.768;2.722;2022-09-12T14:33:31;1.52;;;0.85;;
54247;SDS011;40161;39.768;2.722;2022-09-12T14:38:41;2.05;;;0.70;;
54247;SDS011;40161;39.768;2.722;2022-09-12T14:41:09;3.35;;;0.70;;
54247;SDS011;40161;39.768;2.722;2022-09-12T14:43:38;3.15;;;1.00;;
54247;SDS011;40161;39.768;2.722;2022-09-12T14:46:19;2.17;;;0.95;;
54247;SDS011;40161;39.768;2.722;2022-09-12T14:51:40;3.03;;;1.08;;
54247;SDS011;40161;39.768;2.722;2022-09-12T14:56:58;2.05;;;0.70;;
54247;SDS011;40161;39.768;2.722;2022-09-12T15:04:47;1.42;;;0.70;;
54247;SDS011;40161;39.768;2.722;2022-09-12T15:07:30;5.38;;;1.17;;
54247;SDS011;40161;39.768;2.722;2022-09-12T15:09:58;1.50;;;0.75;;
54247;SDS011;40161;39.768;2.722;2022-09-12T15:12:26;2.28;;;0.68;;
54247;SDS011;40161;39.768;2.722;2022-09-12T15:14:53;2.03;;;0.75;;
54247;SDS011;40161;39.768;2.722;2022-09-12T15:17:25;3.33;;;1.05;;
54247;SDS011;40161;39.768;2.722;2022-09-12T15:19:50;4.90;;;1.10;;
54247;SDS011;40161;39.768;2.722;2022-09-12T15:22:16;3.92;;;0.90;;
54247;SDS011;40161;39.768;2.722;2022-09-12T15:24:43;3.67;;;0.90;;
54247;SDS011;40161;39.768;2.722;2022-09-12T15:27:11;3.72;;;1.00;;
54247;SDS011;40161;39.768;2.722;2022-09-12T15:29:37;2.90;;;1.30;;
54247;SDS011;40161;39.768;2.722;2022-09-12T15:32:03;4.65;;;0.80;;
54247;SDS011;40161;39.768;2.722;2022-09-12T15:34:30;4.15;;;0.93;;
54247;SDS011;40161;39.768;2.722;2022-09-12T15:36:56;2.47;;;0.68;;
54247;SDS011;40161;39.768;2.722;2022-09-12T15:39:22;3.25;;;0.80;;
54247;SDS011;40161;39.768;2.722;2022-09-12T15:41:47;2.25;;;0.60;;
54247;SDS011;40161;39.768;2.722;2022-09-12T15:44:13;3.03;;;0.70;;
54247;SDS011;40161;39.768;2.722;2022-09-12T15:46:39;2.53;;;0.82;;
54247;SDS011;40161;39.768;2.722;2022-09-12T15:49:05;1.88;;;0.60;;
54247;SDS011;40161;39.768;2.722;2022-09-12T15:51:31;3.97;;;1.02;;
54247;SDS011;40161;39.768;2.722;2022-09-12T15:53:57;1.80;;;0.70;;
54247;SDS011;40161;39.768;2.722;2022-09-12T15:56:24;2.70;;;1.00;;
54247;SDS011;40161;39.768;2.722;2022-09-12T15:58:49;4.57;;;1.38;;
54247;SDS011;40161;39.768;2.722;2022-09-12T16:01:16;2.33;;;0.70;;
54247;SDS011;40161;39.768;2.722;2022-09-12T16:03:42;4.57;;;1.20;;
54247;SDS011;40161;39.768;2.722;2022-09-12T16:06:10;4.80;;;1.00;;
54247;SDS011;40161;39.768;2.722;2022-09-12T16:08:36;5.85;;;1.10;;
54247;SDS011;40161;39.768;2.722;2022-09-12T16:11:02;4.68;;;0.90;;
54247;SDS011;40161;39.768;2.722;2022-09-12T16:13:57;1.40;;;0.70;;
54247;SDS011;40161;39.768;2.722;2022-09-12T16:16:22;2.35;;;0.90;;
54247;SDS011;40161;39.768;2.722;2022-09-12T16:18:48;4.60;;;0.82;;
54247;SDS011;40161;39.768;2.722;2022-09-12T16:21:14;3.85;;;0.82;;
54247;SDS011;40161;39.768;2.722;2022-09-12T16:23:41;3.22;;;0.80;;
54247;SDS011;40161;39.768;2.722;2022-09-12T16:26:09;3.78;;;0.80;;
54247;SDS011;40161;39.768;2.722;2022-09-12T16:28:35;3.55;;;0.90;;
54247;SDS011;40161;39.768;2.722;2022-09-12T16:31:01;5.03;;;1.35;;
54247;SDS011;40161;39.768;2.722;2022-09-12T16:33:29;2.42;;;0.88;;
54247;SDS011;40161;39.768;2.722;2022-09-12T16:36:00;3.72;;;0.88;;
54247;SDS011;40161;39.768;2.722;2022-09-12T16:38:27;3.95;;;0.88;;
54247;SDS011;40161;39.768;2.722;2022-09-12T16:40:58;3.05;;;0.80;;
54247;SDS011;40161;39.768;2.722;2022-09-12T16:43:25;5.28;;;0.80;;
54247;SDS011;40161;39.768;2.722;2022-09-12T16:45:58;2.50;;;0.77;;
54247;SDS011;40161;39.768;2.722;2022-09-12T16:48:31;4.18;;;0.80;;
54247;SDS011;40161;39.768;2.722;2022-09-12T16:50:58;2.40;;;0.70;;
54247;SDS011;40161;39.768;2.722;2022-09-12T16:53:28;3.20;;;0.80;;
54247;SDS011;40161;39.768;2.722;2022-09-12T16:55:55;2.50;;;0.80;;
54247;SDS011;40161;39.768;2.722;2022-09-12T16:58:20;2.42;;;0.80;;
54247;SDS011;40161;39.768;2.722;2022-09-12T17:00:46;3.13;;;0.77;;
54247;SDS011;40161;39.768;2.722;2022-09-12T17:03:11;3.13;;;0.80;;
54247;SDS011;40161;39.768;2.722;2022-09-12T17:05:37;1.92;;;0.80;;
54247;SDS011;40161;39.768;2.722;2022-09-12T17:08:03;4.63;;;1.00;;
54247;SDS011;40161;39.768;2.722;2022-09-12T17:10:29;3.38;;;0.90;;
54247;SDS011;40161;39.768;2.722;2022-09-12T17:12:55;4.38;;;0.80;;
54247;SDS011;40161;39.768;2.722;2022-09-12T17:15:21;1.60;;;0.80;;
54247;SDS011;40161;39.768;2.722;2022-09-12T17:17:47;2.72;;;0.68;;
54247;SDS011;40161;39.768;2.722;2022-09-12T17:20:13;1.88;;;0.68;;
54247;SDS011;40161;39.768;2.722;2022-09-12T17:22:38;2.10;;;0.90;;
54247;SDS011;40161;39.768;2.722;2022-09-12T17:25:04;3.85;;;1.00;;
54247;SDS011;40161;39.768;2.722;2022-09-12T17:27:30;2.70;;;0.90;;
54247;SDS011;40161;39.768;2.722;2022-09-12T17:29:56;2.90;;;0.70;;
54247;SDS011;40161;39.768;2.722;2022-09-12T17:32:21;3.08;;;0.70;;
54247;SDS011;40161;39.768;2.722;2022-09-12T17:34:47;3.55;;;0.90;;
54247;SDS011;40161;39.768;2.722;2022-09-12T17:37:12;3.03;;;0.80;;
54247;SDS011;40161;39.768;2.722;2022-09-12T17:39:38;2.92;;;0.95;;
54247;SDS011;40161;39.768;2.722;2022-09-12T17:42:04;4.13;;;0.60;;
54247;SDS011;40161;39.768;2.722;2022-09-12T17:44:32;4.25;;;1.08;;
54247;SDS011;40161;39.768;2.722;2022-09-12T17:46:58;1.27;;;0.55;;
54247;SDS011;40161;39.768;2.722;2022-09-12T17:49:24;2.38;;;0.90;;
54247;SDS011;40161;39.768;2.722;2022-09-12T17:51:49;2.95;;;0.90;;
54247;SDS011;40161;39.768;2.722;2022-09-12T17:54:16;2.65;;;0.90;;
54247;SDS011;40161;39.768;2.722;2022-09-12T17:56:45;3.15;;;0.82;;